Humidity-temperature Sensor

Selected Measurement Type: Relative Humidity

 
Relative Humidity [%]     6 entries per hour
Showing data from 1/31/2021 (00:00:00 Z) to 1/30/2021 (00:01:00 Z)
Previous Next [ Day | 3-Days | 7-Days ]
First Last
Prev [ Day | 3-Days | 7-Days ] Next
First Last

Start Time:     :
End Time:     :     
Time (in GMT) :00 :50 :40 :30 :20 :10
Previous Next [ Day | 3-Days | 7-Days ]
First Last
Prev [ Day | 3-Days | 7-Days ] Next
First Last


123 => good data
MM => data is determined as missing
-- => data not received/configured
Back to Top Back to Top
1/31/2021 00:00 to 23:10 99.27 98.75 97.66 96.40 95.26 95.22
1/30/2021 23:00 to 22:10 95.68 95.37 95.53 95.57 95.82 96.30
1/30/2021 22:00 to 21:10 96.42 96.61 96.77 96.77 97.10 97.66
1/30/2021 21:00 to 20:10 98.17 98.46 98.69 98.61 98.54 98.54
1/30/2021 20:00 to 19:10 98.09 98.26 98.24 98.05 97.97 98.05
1/30/2021 19:00 to 18:10 97.95 98.03 98.13 97.97 98.11 98.11
1/30/2021 18:00 to 17:10 98.03 97.62 97.31 96.89 96.50 96.17
1/30/2021 17:00 to 16:10 95.84 95.70 95.70 95.55 95.51 95.53
1/30/2021 16:00 to 15:10 95.78 95.97 96.25 96.87 97.24 97.66
1/30/2021 15:00 to 14:10 98.21 97.99 98.26 98.65 99.18 99.64
1/30/2021 14:00 to 13:10 99.80 100.05 100.28 100.75 101.08 101.41
1/30/2021 13:00 to 12:10 101.50 101.50 101.50 101.50 101.50 101.50
1/30/2021 12:00 to 11:10 101.50 101.52 101.50 101.50 101.50 101.50
1/30/2021 11:00 to 10:10 101.50 101.50 101.50 101.50 101.50 101.50
1/30/2021 10:00 to 9:10 101.50 101.50 101.50 101.50 101.50 101.50
1/30/2021 09:00 to 8:10 101.50 101.50 101.50 101.50 101.50 101.50
1/30/2021 08:00 to 7:10 101.50 101.50 101.50 101.50 101.50 101.50
1/30/2021 07:00 to 6:10 101.50 101.50 101.50 101.50 101.50 101.50
1/30/2021 06:00 to 5:10 101.52 101.52 101.50 101.50 101.50 101.50
1/30/2021 05:00 to 4:10 101.50 101.50 101.50 101.50 101.43 101.21
1/30/2021 04:00 to 3:10 100.90 100.57 100.53 100.30 100.18 99.95
1/30/2021 03:00 to 2:10 100.01 99.97 99.99 99.60 98.85 99.18
1/30/2021 02:00 to 1:10 99.47 99.80 99.66 99.27 99.25 99.58
1/30/2021 01:00 to 0:10 99.43 99.14 99.21 98.40 97.45 97.33